sensor_id;sensor_type;location;lat;lon;timestamp;P1;durP1;ratioP1;P2;durP2;ratioP2
32748;SDS011;19119;52.474;13.710;2023-05-10T00:01:42;5.63;;;3.75;;
32748;SDS011;19119;52.474;13.710;2023-05-10T00:04:07;10.18;;;3.83;;
32748;SDS011;19119;52.474;13.710;2023-05-10T00:06:32;8.10;;;4.20;;
32748;SDS011;19119;52.474;13.710;2023-05-10T00:08:58;6.85;;;4.13;;
32748;SDS011;19119;52.474;13.710;2023-05-10T00:11:23;8.55;;;4.00;;
32748;SDS011;19119;52.474;13.710;2023-05-10T00:13:49;8.30;;;3.92;;
32748;SDS011;19119;52.474;13.710;2023-05-10T00:16:14;7.07;;;4.32;;
32748;SDS011;19119;52.474;13.710;2023-05-10T00:18:40;6.25;;;3.95;;
32748;SDS011;19119;52.474;13.710;2023-05-10T00:21:05;6.38;;;3.97;;
32748;SDS011;19119;52.474;13.710;2023-05-10T00:23:31;10.02;;;4.70;;
32748;SDS011;19119;52.474;13.710;2023-05-10T00:25:57;6.55;;;3.80;;
32748;SDS011;19119;52.474;13.710;2023-05-10T00:28:22;7.07;;;4.05;;
32748;SDS011;19119;52.474;13.710;2023-05-10T00:30:48;6.85;;;4.00;;
32748;SDS011;19119;52.474;13.710;2023-05-10T00:33:13;6.25;;;4.20;;
32748;SDS011;19119;52.474;13.710;2023-05-10T00:35:39;9.43;;;4.20;;
32748;SDS011;19119;52.474;13.710;2023-05-10T00:38:05;6.50;;;4.53;;
32748;SDS011;19119;52.474;13.710;2023-05-10T00:40:30;6.78;;;4.32;;
32748;SDS011;19119;52.474;13.710;2023-05-10T00:42:56;7.40;;;5.07;;
32748;SDS011;19119;52.474;13.710;2023-05-10T00:45:23;5.80;;;4.40;;
32748;SDS011;19119;52.474;13.710;2023-05-10T00:47:48;10.10;;;4.60;;
32748;SDS011;19119;52.474;13.710;2023-05-10T00:50:14;5.70;;;3.88;;
32748;SDS011;19119;52.474;13.710;2023-05-10T00:52:40;9.48;;;4.22;;
32748;SDS011;19119;52.474;13.710;2023-05-10T00:55:07;8.77;;;4.43;;
32748;SDS011;19119;52.474;13.710;2023-05-10T00:57:35;7.63;;;4.78;;
32748;SDS011;19119;52.474;13.710;2023-05-10T01:00:01;7.13;;;3.97;;
32748;SDS011;19119;52.474;13.710;2023-05-10T01:02:27;7.57;;;4.80;;
32748;SDS011;19119;52.474;13.710;2023-05-10T01:04:53;7.68;;;4.47;;
32748;SDS011;19119;52.474;13.710;2023-05-10T01:07:19;9.55;;;4.78;;
32748;SDS011;19119;52.474;13.710;2023-05-10T01:09:45;10.70;;;4.55;;
32748;SDS011;19119;52.474;13.710;2023-05-10T01:12:11;7.68;;;4.07;;
32748;SDS011;19119;52.474;13.710;2023-05-10T01:14:36;6.68;;;4.05;;
32748;SDS011;19119;52.474;13.710;2023-05-10T01:17:02;9.32;;;5.00;;
32748;SDS011;19119;52.474;13.710;2023-05-10T01:19:29;9.13;;;4.40;;
32748;SDS011;19119;52.474;13.710;2023-05-10T01:22:22;6.28;;;4.63;;
32748;SDS011;19119;52.474;13.710;2023-05-10T01:25:11;6.30;;;4.47;;
32748;SDS011;19119;52.474;13.710;2023-05-10T01:30:58;7.00;;;4.78;;
32748;SDS011;19119;52.474;13.710;2023-05-10T01:33:35;7.15;;;4.22;;
32748;SDS011;19119;52.474;13.710;2023-05-10T01:41:59;9.40;;;5.13;;
32748;SDS011;19119;52.474;13.710;2023-05-10T01:44:47;7.05;;;4.53;;
32748;SDS011;19119;52.474;13.710;2023-05-10T01:47:22;9.07;;;4.35;;
32748;SDS011;19119;52.474;13.710;2023-05-10T01:50:00;11.40;;;4.47;;
32748;SDS011;19119;52.474;13.710;2023-05-10T01:52:30;6.63;;;4.35;;
32748;SDS011;19119;52.474;13.710;2023-05-10T01:55:02;6.28;;;3.80;;
32748;SDS011;19119;52.474;13.710;2023-05-10T01:57:35;7.68;;;4.28;;
32748;SDS011;19119;52.474;13.710;2023-05-10T02:00:03;8.52;;;4.32;;
32748;SDS011;19119;52.474;13.710;2023-05-10T02:02:29;6.95;;;4.28;;
32748;SDS011;19119;52.474;13.710;2023-05-10T02:05:04;7.28;;;4.53;;
32748;SDS011;19119;52.474;13.710;2023-05-10T02:07:31;7.47;;;4.50;;
32748;SDS011;19119;52.474;13.710;2023-05-10T02:10:00;5.93;;;3.78;;
32748;SDS011;19119;52.474;13.710;2023-05-10T02:12:29;7.72;;;3.85;;
32748;SDS011;19119;52.474;13.710;2023-05-10T02:14:57;8.40;;;4.40;;
32748;SDS011;19119;52.474;13.710;2023-05-10T02:17:27;6.53;;;4.18;;
32748;SDS011;19119;52.474;13.710;2023-05-10T02:19:53;5.90;;;3.47;;
32748;SDS011;19119;52.474;13.710;2023-05-10T02:22:20;10.27;;;4.40;;
32748;SDS011;19119;52.474;13.710;2023-05-10T02:24:47;8.20;;;3.95;;
32748;SDS011;19119;52.474;13.710;2023-05-10T02:30:30;7.18;;;3.92;;
32748;SDS011;19119;52.474;13.710;2023-05-10T02:32:57;8.18;;;4.20;;
32748;SDS011;19119;52.474;13.710;2023-05-10T02:35:24;6.03;;;3.83;;
32748;SDS011;19119;52.474;13.710;2023-05-10T02:37:51;8.90;;;4.10;;
32748;SDS011;19119;52.474;13.710;2023-05-10T02:40:18;12.98;;;5.53;;
32748;SDS011;19119;52.474;13.710;2023-05-10T02:42:44;9.52;;;4.07;;
32748;SDS011;19119;52.474;13.710;2023-05-10T02:45:14;9.00;;;4.07;;
32748;SDS011;19119;52.474;13.710;2023-05-10T02:47:43;6.95;;;3.72;;
32748;SDS011;19119;52.474;13.710;2023-05-10T02:50:08;7.07;;;4.13;;
32748;SDS011;19119;52.474;13.710;2023-05-10T02:52:46;4.97;;;3.42;;
32748;SDS011;19119;52.474;13.710;2023-05-10T02:55:15;7.90;;;4.30;;
32748;SDS011;19119;52.474;13.710;2023-05-10T02:57:57;8.15;;;3.88;;
32748;SDS011;19119;52.474;13.710;2023-05-10T03:00:25;7.05;;;3.80;;
32748;SDS011;19119;52.474;13.710;2023-05-10T03:02:51;5.43;;;4.10;;
32748;SDS011;19119;52.474;13.710;2023-05-10T03:05:16;9.35;;;4.57;;
32748;SDS011;19119;52.474;13.710;2023-05-10T03:07:42;10.75;;;5.50;;
32748;SDS011;19119;52.474;13.710;2023-05-10T03:10:08;7.20;;;3.90;;
32748;SDS011;19119;52.474;13.710;2023-05-10T03:12:45;8.48;;;4.45;;
32748;SDS011;19119;52.474;13.710;2023-05-10T03:20:56;9.27;;;4.15;;
32748;SDS011;19119;52.474;13.710;2023-05-10T03:23:27;10.45;;;4.10;;
32748;SDS011;19119;52.474;13.710;2023-05-10T03:26:04;7.15;;;3.85;;
32748;SDS011;19119;52.474;13.710;2023-05-10T03:28:30;6.75;;;4.20;;
32748;SDS011;19119;52.474;13.710;2023-05-10T03:30:58;10.07;;;4.93;;
32748;SDS011;19119;52.474;13.710;2023-05-10T03:33:24;7.78;;;4.05;;
32748;SDS011;19119;52.474;13.710;2023-05-10T03:35:50;6.93;;;4.00;;
32748;SDS011;19119;52.474;13.710;2023-05-10T03:38:16;5.45;;;3.78;;
32748;SDS011;19119;52.474;13.710;2023-05-10T03:40:41;12.55;;;4.22;;
32748;SDS011;19119;52.474;13.710;2023-05-10T03:43:06;10.52;;;4.70;;
32748;SDS011;19119;52.474;13.710;2023-05-10T03:45:32;7.40;;;4.15;;
32748;SDS011;19119;52.474;13.710;2023-05-10T03:47:58;8.32;;;4.13;;
32748;SDS011;19119;52.474;13.710;2023-05-10T03:50:23;8.57;;;4.25;;
32748;SDS011;19119;52.474;13.710;2023-05-10T03:52:49;6.63;;;4.10;;
32748;SDS011;19119;52.474;13.710;2023-05-10T03:55:15;6.93;;;3.90;;
32748;SDS011;19119;52.474;13.710;2023-05-10T03:57:41;5.63;;;4.28;;
32748;SDS011;19119;52.474;13.710;2023-05-10T04:00:07;5.63;;;3.88;;
32748;SDS011;19119;52.474;13.710;2023-05-10T04:02:33;6.32;;;3.80;;
32748;SDS011;19119;52.474;13.710;2023-05-10T04:04:58;11.73;;;4.30;;
32748;SDS011;19119;52.474;13.710;2023-05-10T04:07:24;10.10;;;4.53;;
32748;SDS011;19119;52.474;13.710;2023-05-10T04:09:49;11.40;;;3.78;;
32748;SDS011;19119;52.474;13.710;2023-05-10T04:12:15;12.35;;;3.80;;
32748;SDS011;19119;52.474;13.710;2023-05-10T04:14:40;7.78;;;3.88;;
32748;SDS011;19119;52.474;13.710;2023-05-10T04:17:06;7.72;;;4.05;;
32748;SDS011;19119;52.474;13.710;2023-05-10T04:19:31;10.88;;;4.55;;
32748;SDS011;19119;52.474;13.710;2023-05-10T04:21:57;7.35;;;3.88;;
32748;SDS011;19119;52.474;13.710;2023-05-10T04:24:23;6.35;;;3.60;;
32748;SDS011;19119;52.474;13.710;2023-05-10T04:26:49;6.18;;;3.30;;
32748;SDS011;19119;52.474;13.710;2023-05-10T04:29:15;7.45;;;3.78;;
32748;SDS011;19119;52.474;13.710;2023-05-10T04:31:41;7.03;;;4.07;;
32748;SDS011;19119;52.474;13.710;2023-05-10T04:34:06;15.50;;;3.70;;
32748;SDS011;19119;52.474;13.710;2023-05-10T04:36:31;9.30;;;3.70;;
32748;SDS011;19119;52.474;13.710;2023-05-10T04:38:58;8.48;;;3.70;;
32748;SDS011;19119;52.474;13.710;2023-05-10T04:41:24;4.30;;;2.85;;
32748;SDS011;19119;52.474;13.710;2023-05-10T04:43:50;6.32;;;3.60;;
32748;SDS011;19119;52.474;13.710;2023-05-10T04:46:15;6.18;;;4.10;;
32748;SDS011;19119;52.474;13.710;2023-05-10T04:48:41;6.38;;;3.33;;
32748;SDS011;19119;52.474;13.710;2023-05-10T04:51:06;4.80;;;3.20;;
32748;SDS011;19119;52.474;13.710;2023-05-10T04:53:32;6.00;;;3.85;;
32748;SDS011;19119;52.474;13.710;2023-05-10T04:55:58;6.07;;;3.60;;
32748;SDS011;19119;52.474;13.710;2023-05-10T04:58:23;4.20;;;3.30;;
32748;SDS011;19119;52.474;13.710;2023-05-10T05:00:49;6.05;;;3.17;;
32748;SDS011;19119;52.474;13.710;2023-05-10T05:03:14;7.28;;;3.72;;
32748;SDS011;19119;52.474;13.710;2023-05-10T05:05:40;7.00;;;3.30;;
32748;SDS011;19119;52.474;13.710;2023-05-10T05:08:05;4.45;;;3.08;;
32748;SDS011;19119;52.474;13.710;2023-05-10T05:10:31;7.75;;;3.58;;
32748;SDS011;19119;52.474;13.710;2023-05-10T05:12:56;4.63;;;3.17;;
32748;SDS011;19119;52.474;13.710;2023-05-10T05:15:22;8.45;;;3.13;;
32748;SDS011;19119;52.474;13.710;2023-05-10T05:17:47;10.70;;;3.53;;
32748;SDS011;19119;52.474;13.710;2023-05-10T05:20:12;7.18;;;3.40;;
32748;SDS011;19119;52.474;13.710;2023-05-10T05:22:38;5.97;;;3.05;;
32748;SDS011;19119;52.474;13.710;2023-05-10T05:25:04;7.03;;;3.40;;
32748;SDS011;19119;52.474;13.710;2023-05-10T05:27:30;7.05;;;3.15;;
32748;SDS011;19119;52.474;13.710;2023-05-10T05:29:56;8.65;;;3.58;;
32748;SDS011;19119;52.474;13.710;2023-05-10T05:32:22;5.05;;;3.25;;
32748;SDS011;19119;52.474;13.710;2023-05-10T05:34:48;6.03;;;3.15;;
32748;SDS011;19119;52.474;13.710;2023-05-10T05:37:15;4.13;;;2.55;;
32748;SDS011;19119;52.474;13.710;2023-05-10T05:39:42;6.60;;;3.50;;
32748;SDS011;19119;52.474;13.710;2023-05-10T05:42:09;5.88;;;3.13;;
32748;SDS011;19119;52.474;13.710;2023-05-10T05:44:34;4.85;;;2.40;;
32748;SDS011;19119;52.474;13.710;2023-05-10T05:47:00;5.88;;;2.88;;
32748;SDS011;19119;52.474;13.710;2023-05-10T05:49:25;6.03;;;2.78;;
32748;SDS011;19119;52.474;13.710;2023-05-10T05:51:51;4.13;;;2.75;;
32748;SDS011;19119;52.474;13.710;2023-05-10T05:54:16;6.95;;;2.42;;
32748;SDS011;19119;52.474;13.710;2023-05-10T05:56:42;6.70;;;2.55;;
32748;SDS011;19119;52.474;13.710;2023-05-10T05:59:09;6.15;;;2.95;;
32748;SDS011;19119;52.474;13.710;2023-05-10T06:01:34;4.40;;;2.33;;
32748;SDS011;19119;52.474;13.710;2023-05-10T06:04:00;3.72;;;2.40;;
32748;SDS011;19119;52.474;13.710;2023-05-10T06:06:26;6.05;;;2.63;;
32748;SDS011;19119;52.474;13.710;2023-05-10T06:08:51;9.77;;;2.53;;
32748;SDS011;19119;52.474;13.710;2023-05-10T06:11:17;4.03;;;2.88;;
32748;SDS011;19119;52.474;13.710;2023-05-10T06:13:42;4.47;;;2.20;;
32748;SDS011;19119;52.474;13.710;2023-05-10T06:16:08;6.70;;;2.20;;
32748;SDS011;19119;52.474;13.710;2023-05-10T06:18:33;3.55;;;2.22;;
32748;SDS011;19119;52.474;13.710;2023-05-10T06:20:59;4.40;;;3.00;;
32748;SDS011;19119;52.474;13.710;2023-05-10T06:23:25;5.60;;;2.53;;
32748;SDS011;19119;52.474;13.710;2023-05-10T06:25:51;3.35;;;2.15;;
32748;SDS011;19119;52.474;13.710;2023-05-10T06:28:17;5.05;;;2.40;;
32748;SDS011;19119;52.474;13.710;2023-05-10T06:30:42;4.95;;;2.83;;
32748;SDS011;19119;52.474;13.710;2023-05-10T06:33:08;4.78;;;2.10;;
32748;SDS011;19119;52.474;13.710;2023-05-10T06:35:33;5.60;;;2.38;;
32748;SDS011;19119;52.474;13.710;2023-05-10T06:37:59;5.05;;;2.15;;
32748;SDS011;19119;52.474;13.710;2023-05-10T06:40:24;5.20;;;2.65;;
32748;SDS011;19119;52.474;13.710;2023-05-10T06:42:50;5.63;;;2.42;;
32748;SDS011;19119;52.474;13.710;2023-05-10T06:45:16;5.30;;;2.00;;
32748;SDS011;19119;52.474;13.710;2023-05-10T06:47:41;4.07;;;2.30;;
32748;SDS011;19119;52.474;13.710;2023-05-10T06:50:08;5.03;;;2.33;;
32748;SDS011;19119;52.474;13.710;2023-05-10T06:52:34;4.55;;;2.05;;
32748;SDS011;19119;52.474;13.710;2023-05-10T06:54:59;5.93;;;2.40;;
32748;SDS011;19119;52.474;13.710;2023-05-10T06:57:25;6.30;;;2.45;;
32748;SDS011;19119;52.474;13.710;2023-05-10T06:59:51;4.97;;;2.35;;
32748;SDS011;19119;52.474;13.710;2023-05-10T07:02:17;6.10;;;2.25;;
32748;SDS011;19119;52.474;13.710;2023-05-10T07:04:42;5.28;;;2.50;;
32748;SDS011;19119;52.474;13.710;2023-05-10T07:07:08;4.97;;;1.95;;
32748;SDS011;19119;52.474;13.710;2023-05-10T07:09:34;7.65;;;2.20;;
32748;SDS011;19119;52.474;13.710;2023-05-10T07:11:59;3.55;;;1.90;;
32748;SDS011;19119;52.474;13.710;2023-05-10T07:14:26;3.40;;;2.30;;
32748;SDS011;19119;52.474;13.710;2023-05-10T07:16:52;3.42;;;1.77;;
32748;SDS011;19119;52.474;13.710;2023-05-10T07:19:17;3.05;;;2.15;;
32748;SDS011;19119;52.474;13.710;2023-05-10T07:21:43;4.68;;;1.80;;
32748;SDS011;19119;52.474;13.710;2023-05-10T07:24:09;5.97;;;2.17;;
32748;SDS011;19119;52.474;13.710;2023-05-10T07:26:34;4.60;;;2.08;;
32748;SDS011;19119;52.474;13.710;2023-05-10T07:29:00;3.70;;;2.67;;
32748;SDS011;19119;52.474;13.710;2023-05-10T07:31:26;3.92;;;2.17;;
32748;SDS011;19119;52.474;13.710;2023-05-10T07:33:51;3.10;;;1.90;;
32748;SDS011;19119;52.474;13.710;2023-05-10T07:36:16;4.40;;;2.10;;
32748;SDS011;19119;52.474;13.710;2023-05-10T07:38:42;15.05;;;2.33;;
32748;SDS011;19119;52.474;13.710;2023-05-10T07:41:07;4.90;;;2.17;;
32748;SDS011;19119;52.474;13.710;2023-05-10T07:43:33;8.88;;;2.30;;
32748;SDS011;19119;52.474;13.710;2023-05-10T07:45:58;3.10;;;2.00;;
32748;SDS011;19119;52.474;13.710;2023-05-10T07:48:24;5.40;;;1.92;;
32748;SDS011;19119;52.474;13.710;2023-05-10T07:50:50;5.10;;;2.00;;
32748;SDS011;19119;52.474;13.710;2023-05-10T07:53:16;3.35;;;1.88;;
32748;SDS011;19119;52.474;13.710;2023-05-10T07:55:43;5.47;;;2.28;;
32748;SDS011;19119;52.474;13.710;2023-05-10T07:58:08;5.28;;;2.65;;
32748;SDS011;19119;52.474;13.710;2023-05-10T08:00:34;3.17;;;2.20;;
32748;SDS011;19119;52.474;13.710;2023-05-10T08:03:00;7.20;;;1.90;;
32748;SDS011;19119;52.474;13.710;2023-05-10T08:05:25;2.85;;;2.17;;
32748;SDS011;19119;52.474;13.710;2023-05-10T08:07:51;4.75;;;2.33;;
32748;SDS011;19119;52.474;13.710;2023-05-10T08:10:16;3.83;;;2.10;;
32748;SDS011;19119;52.474;13.710;2023-05-10T08:12:42;3.00;;;2.13;;
32748;SDS011;19119;52.474;13.710;2023-05-10T08:15:07;3.53;;;2.00;;
32748;SDS011;19119;52.474;13.710;2023-05-10T08:17:33;2.70;;;2.20;;
32748;SDS011;19119;52.474;13.710;2023-05-10T08:19:59;4.20;;;1.75;;
32748;SDS011;19119;52.474;13.710;2023-05-10T08:22:25;5.07;;;2.30;;
32748;SDS011;19119;52.474;13.710;2023-05-10T08:24:50;3.80;;;2.55;;
32748;SDS011;19119;52.474;13.710;2023-05-10T08:27:16;3.58;;;1.80;;
32748;SDS011;19119;52.474;13.710;2023-05-10T08:29:41;5.47;;;2.15;;
32748;SDS011;19119;52.474;13.710;2023-05-10T08:32:07;16.17;;;2.30;;
32748;SDS011;19119;52.474;13.710;2023-05-10T08:34:32;4.35;;;2.03;;
32748;SDS011;19119;52.474;13.710;2023-05-10T08:36:58;4.32;;;1.92;;
32748;SDS011;19119;52.474;13.710;2023-05-10T08:39:23;8.65;;;2.63;;
32748;SDS011;19119;52.474;13.710;2023-05-10T08:41:49;9.13;;;2.20;;
32748;SDS011;19119;52.474;13.710;2023-05-10T08:44:18;2.90;;;2.00;;
32748;SDS011;19119;52.474;13.710;2023-05-10T08:46:45;4.70;;;2.55;;
32748;SDS011;19119;52.474;13.710;2023-05-10T08:49:13;2.60;;;1.70;;
32748;SDS011;19119;52.474;13.710;2023-05-10T08:51:43;14.30;;;3.05;;
32748;SDS011;19119;52.474;13.710;2023-05-10T08:54:14;7.65;;;2.42;;
32748;SDS011;19119;52.474;13.710;2023-05-10T08:56:40;5.47;;;2.30;;
32748;SDS011;19119;52.474;13.710;2023-05-10T08:59:06;9.25;;;2.08;;
32748;SDS011;19119;52.474;13.710;2023-05-10T09:01:32;3.85;;;1.98;;
32748;SDS011;19119;52.474;13.710;2023-05-10T09:04:00;4.55;;;2.25;;
32748;SDS011;19119;52.474;13.710;2023-05-10T09:06:25;3.00;;;2.20;;
32748;SDS011;19119;52.474;13.710;2023-05-10T09:08:51;3.20;;;2.13;;
32748;SDS011;19119;52.474;13.710;2023-05-10T09:11:17;3.97;;;1.98;;
32748;SDS011;19119;52.474;13.710;2023-05-10T09:13:45;4.72;;;2.10;;
32748;SDS011;19119;52.474;13.710;2023-05-10T09:16:12;13.77;;;2.10;;
32748;SDS011;19119;52.474;13.710;2023-05-10T09:18:37;4.45;;;2.30;;
32748;SDS011;19119;52.474;13.710;2023-05-10T09:21:03;3.92;;;2.58;;
32748;SDS011;19119;52.474;13.710;2023-05-10T09:23:28;4.15;;;2.13;;
32748;SDS011;19119;52.474;13.710;2023-05-10T09:26:06;4.20;;;2.20;;
32748;SDS011;19119;52.474;13.710;2023-05-10T09:28:50;2.67;;;2.00;;
32748;SDS011;19119;52.474;13.710;2023-05-10T09:31:20;5.47;;;2.20;;
32748;SDS011;19119;52.474;13.710;2023-05-10T09:33:46;4.70;;;2.20;;
32748;SDS011;19119;52.474;13.710;2023-05-10T09:36:13;5.65;;;2.00;;
32748;SDS011;19119;52.474;13.710;2023-05-10T09:38:49;4.22;;;2.08;;
32748;SDS011;19119;52.474;13.710;2023-05-10T09:41:19;4.20;;;2.20;;
32748;SDS011;19119;52.474;13.710;2023-05-10T09:43:46;13.98;;;2.33;;
32748;SDS011;19119;52.474;13.710;2023-05-10T09:46:11;7.25;;;2.13;;
32748;SDS011;19119;52.474;13.710;2023-05-10T09:48:44;4.18;;;1.98;;
32748;SDS011;19119;52.474;13.710;2023-05-10T09:51:21;4.47;;;2.10;;
32748;SDS011;19119;52.474;13.710;2023-05-10T09:53:47;5.00;;;2.35;;
32748;SDS011;19119;52.474;13.710;2023-05-10T09:56:32;4.82;;;1.90;;
32748;SDS011;19119;52.474;13.710;2023-05-10T09:59:02;5.22;;;2.22;;
32748;SDS011;19119;52.474;13.710;2023-05-10T10:01:28;2.97;;;1.95;;
32748;SDS011;19119;52.474;13.710;2023-05-10T10:03:55;3.35;;;1.73;;
32748;SDS011;19119;52.474;13.710;2023-05-10T10:06:22;4.05;;;2.10;;
32748;SDS011;19119;52.474;13.710;2023-05-10T10:08:48;3.55;;;2.30;;
32748;SDS011;19119;52.474;13.710;2023-05-10T10:11:14;4.20;;;2.15;;
32748;SDS011;19119;52.474;13.710;2023-05-10T10:13:39;3.55;;;1.77;;
32748;SDS011;19119;52.474;13.710;2023-05-10T10:16:05;3.13;;;2.05;;
32748;SDS011;19119;52.474;13.710;2023-05-10T10:18:31;5.57;;;2.08;;
32748;SDS011;19119;52.474;13.710;2023-05-10T10:20:57;8.50;;;2.40;;
32748;SDS011;19119;52.474;13.710;2023-05-10T10:23:23;2.70;;;1.60;;
32748;SDS011;19119;52.474;13.710;2023-05-10T10:25:48;2.85;;;1.98;;
32748;SDS011;19119;52.474;13.710;2023-05-10T10:28:23;2.85;;;2.10;;
32748;SDS011;19119;52.474;13.710;2023-05-10T10:31:13;3.28;;;2.03;;
32748;SDS011;19119;52.474;13.710;2023-05-10T10:34:16;3.60;;;2.20;;
32748;SDS011;19119;52.474;13.710;2023-05-10T10:39:21;4.70;;;2.88;;
32748;SDS011;19119;52.474;13.710;2023-05-10T10:41:51;3.83;;;2.10;;
32748;SDS011;19119;52.474;13.710;2023-05-10T10:44:25;5.78;;;2.00;;
32748;SDS011;19119;52.474;13.710;2023-05-10T10:49:54;3.60;;;1.92;;
32748;SDS011;19119;52.474;13.710;2023-05-10T10:52:30;6.65;;;1.98;;
32748;SDS011;19119;52.474;13.710;2023-05-10T11:00:47;3.88;;;2.10;;
32748;SDS011;19119;52.474;13.710;2023-05-10T11:02:58;5.68;;;2.15;;
32748;SDS011;19119;52.474;13.710;2023-05-10T11:08:10;6.20;;;2.53;;
32748;SDS011;19119;52.474;13.710;2023-05-10T11:10:37;4.10;;;1.90;;
32748;SDS011;19119;52.474;13.710;2023-05-10T11:13:10;2.67;;;1.67;;
32748;SDS011;19119;52.474;13.710;2023-05-10T11:15:36;4.15;;;2.15;;
32748;SDS011;19119;52.474;13.710;2023-05-10T11:18:19;2.63;;;1.77;;
32748;SDS011;19119;52.474;13.710;2023-05-10T11:20:56;5.57;;;2.10;;
32748;SDS011;19119;52.474;13.710;2023-05-10T11:23:31;6.68;;;1.85;;
32748;SDS011;19119;52.474;13.710;2023-05-10T11:26:12;4.35;;;1.70;;
32748;SDS011;19119;52.474;13.710;2023-05-10T11:28:42;7.18;;;2.25;;
32748;SDS011;19119;52.474;13.710;2023-05-10T11:31:08;5.40;;;1.92;;
32748;SDS011;19119;52.474;13.710;2023-05-10T11:33:44;6.18;;;2.10;;
32748;SDS011;19119;52.474;13.710;2023-05-10T11:36:43;4.55;;;1.95;;
32748;SDS011;19119;52.474;13.710;2023-05-10T11:39:02;4.07;;;1.92;;
32748;SDS011;19119;52.474;13.710;2023-05-10T11:41:28;17.65;;;2.97;;
32748;SDS011;19119;52.474;13.710;2023-05-10T11:43:55;34.53;;;3.80;;
32748;SDS011;19119;52.474;13.710;2023-05-10T11:46:25;5.68;;;1.92;;
32748;SDS011;19119;52.474;13.710;2023-05-10T11:48:53;5.80;;;1.92;;
32748;SDS011;19119;52.474;13.710;2023-05-10T11:51:22;3.65;;;1.70;;
32748;SDS011;19119;52.474;13.710;2023-05-10T11:53:50;6.88;;;1.77;;
32748;SDS011;19119;52.474;13.710;2023-05-10T11:56:17;2.92;;;1.88;;
32748;SDS011;19119;52.474;13.710;2023-05-10T11:58:42;5.93;;;2.00;;
32748;SDS011;19119;52.474;13.710;2023-05-10T12:01:08;2.53;;;1.80;;
32748;SDS011;19119;52.474;13.710;2023-05-10T12:03:35;3.08;;;1.92;;
32748;SDS011;19119;52.474;13.710;2023-05-10T12:06:01;3.20;;;1.75;;
32748;SDS011;19119;52.474;13.710;2023-05-10T12:08:28;4.38;;;1.90;;
32748;SDS011;19119;52.474;13.710;2023-05-10T12:11:03;4.05;;;1.92;;
32748;SDS011;19119;52.474;13.710;2023-05-10T12:13:37;4.82;;;1.73;;
32748;SDS011;19119;52.474;13.710;2023-05-10T12:16:16;3.78;;;1.85;;
32748;SDS011;19119;52.474;13.710;2023-05-10T12:18:44;4.20;;;1.50;;
32748;SDS011;19119;52.474;13.710;2023-05-10T12:21:10;3.50;;;2.17;;
32748;SDS011;19119;52.474;13.710;2023-05-10T12:23:37;4.72;;;1.90;;
32748;SDS011;19119;52.474;13.710;2023-05-10T12:26:03;3.33;;;1.60;;
32748;SDS011;19119;52.474;13.710;2023-05-10T12:28:30;13.50;;;2.05;;
32748;SDS011;19119;52.474;13.710;2023-05-10T12:30:57;3.38;;;1.50;;
32748;SDS011;19119;52.474;13.710;2023-05-10T12:33:23;6.32;;;2.03;;
32748;SDS011;19119;52.474;13.710;2023-05-10T12:35:50;4.82;;;1.77;;
32748;SDS011;19119;52.474;13.710;2023-05-10T12:38:25;4.38;;;1.48;;
32748;SDS011;19119;52.474;13.710;2023-05-10T12:40:57;3.50;;;1.70;;
32748;SDS011;19119;52.474;13.710;2023-05-10T12:43:24;5.82;;;1.70;;
32748;SDS011;19119;52.474;13.710;2023-05-10T12:45:49;4.53;;;1.85;;
32748;SDS011;19119;52.474;13.710;2023-05-10T12:48:15;12.25;;;2.58;;
32748;SDS011;19119;52.474;13.710;2023-05-10T12:50:41;3.60;;;1.42;;
32748;SDS011;19119;52.474;13.710;2023-05-10T12:53:06;2.90;;;1.63;;
32748;SDS011;19119;52.474;13.710;2023-05-10T12:55:32;3.15;;;1.60;;
32748;SDS011;19119;52.474;13.710;2023-05-10T12:57:57;3.58;;;1.63;;
32748;SDS011;19119;52.474;13.710;2023-05-10T13:00:23;11.07;;;1.83;;
32748;SDS011;19119;52.474;13.710;2023-05-10T13:02:48;3.97;;;1.65;;
32748;SDS011;19119;52.474;13.710;2023-05-10T13:05:14;2.80;;;1.38;;
32748;SDS011;19119;52.474;13.710;2023-05-10T13:07:40;4.95;;;1.70;;
32748;SDS011;19119;52.474;13.710;2023-05-10T13:10:06;5.13;;;2.00;;
32748;SDS011;19119;52.474;13.710;2023-05-10T13:12:31;3.70;;;1.58;;
32748;SDS011;19119;52.474;13.710;2023-05-10T13:14:57;5.28;;;1.48;;
32748;SDS011;19119;52.474;13.710;2023-05-10T13:17:23;3.72;;;1.27;;
32748;SDS011;19119;52.474;13.710;2023-05-10T13:19:50;2.45;;;1.73;;
32748;SDS011;19119;52.474;13.710;2023-05-10T13:22:15;6.47;;;1.55;;
32748;SDS011;19119;52.474;13.710;2023-05-10T13:24:41;1.90;;;1.50;;
32748;SDS011;19119;52.474;13.710;2023-05-10T13:27:06;3.90;;;1.50;;
32748;SDS011;19119;52.474;13.710;2023-05-10T13:29:31;1.98;;;1.20;;
32748;SDS011;19119;52.474;13.710;2023-05-10T13:31:57;6.30;;;1.50;;
32748;SDS011;19119;52.474;13.710;2023-05-10T13:34:23;4.45;;;1.25;;
32748;SDS011;19119;52.474;13.710;2023-05-10T13:36:49;2.70;;;1.42;;
32748;SDS011;19119;52.474;13.710;2023-05-10T13:39:14;4.20;;;1.48;;
32748;SDS011;19119;52.474;13.710;2023-05-10T13:41:40;4.63;;;1.63;;
32748;SDS011;19119;52.474;13.710;2023-05-10T13:44:05;6.05;;;1.60;;
32748;SDS011;19119;52.474;13.710;2023-05-10T13:46:31;3.17;;;1.48;;
32748;SDS011;19119;52.474;13.710;2023-05-10T13:48:56;5.95;;;1.52;;
32748;SDS011;19119;52.474;13.710;2023-05-10T13:51:22;3.90;;;1.65;;
32748;SDS011;19119;52.474;13.710;2023-05-10T13:53:48;3.28;;;1.52;;
32748;SDS011;19119;52.474;13.710;2023-05-10T13:56:13;4.47;;;1.40;;
32748;SDS011;19119;52.474;13.710;2023-05-10T13:58:39;4.88;;;1.50;;
32748;SDS011;19119;52.474;13.710;2023-05-10T14:01:04;3.70;;;1.52;;
32748;SDS011;19119;52.474;13.710;2023-05-10T14:03:30;2.75;;;1.45;;
32748;SDS011;19119;52.474;13.710;2023-05-10T14:05:57;4.60;;;1.70;;
32748;SDS011;19119;52.474;13.710;2023-05-10T14:08:23;3.35;;;1.40;;
32748;SDS011;19119;52.474;13.710;2023-05-10T14:10:48;2.50;;;1.20;;
32748;SDS011;19119;52.474;13.710;2023-05-10T14:13:15;2.78;;;1.25;;
32748;SDS011;19119;52.474;13.710;2023-05-10T14:15:41;5.32;;;1.60;;
32748;SDS011;19119;52.474;13.710;2023-05-10T14:18:06;3.50;;;1.65;;
32748;SDS011;19119;52.474;13.710;2023-05-10T14:20:32;3.97;;;1.55;;
32748;SDS011;19119;52.474;13.710;2023-05-10T14:22:59;1.92;;;1.30;;
32748;SDS011;19119;52.474;13.710;2023-05-10T14:25:25;4.40;;;1.33;;
32748;SDS011;19119;52.474;13.710;2023-05-10T14:27:50;5.00;;;1.73;;
32748;SDS011;19119;52.474;13.710;2023-05-10T14:30:16;3.28;;;1.48;;
32748;SDS011;19119;52.474;13.710;2023-05-10T14:32:42;2.63;;;1.10;;
32748;SDS011;19119;52.474;13.710;2023-05-10T14:35:08;3.83;;;1.52;;
32748;SDS011;19119;52.474;13.710;2023-05-10T14:37:33;4.18;;;1.52;;
32748;SDS011;19119;52.474;13.710;2023-05-10T14:39:59;2.53;;;1.50;;
32748;SDS011;19119;52.474;13.710;2023-05-10T14:42:28;3.17;;;1.67;;
32748;SDS011;19119;52.474;13.710;2023-05-10T14:44:54;3.63;;;1.45;;
32748;SDS011;19119;52.474;13.710;2023-05-10T14:47:20;2.30;;;1.35;;
32748;SDS011;19119;52.474;13.710;2023-05-10T14:49:45;4.63;;;2.03;;
32748;SDS011;19119;52.474;13.710;2023-05-10T14:52:12;3.05;;;1.20;;
32748;SDS011;19119;52.474;13.710;2023-05-10T14:54:39;1.90;;;1.25;;
32748;SDS011;19119;52.474;13.710;2023-05-10T14:57:06;11.45;;;1.98;;
32748;SDS011;19119;52.474;13.710;2023-05-10T14:59:31;4.55;;;1.48;;
32748;SDS011;19119;52.474;13.710;2023-05-10T15:01:57;4.43;;;1.35;;
32748;SDS011;19119;52.474;13.710;2023-05-10T15:04:23;2.92;;;1.45;;
32748;SDS011;19119;52.474;13.710;2023-05-10T15:06:49;5.22;;;1.35;;